createdAt,value
2018-12-18T00:01:32.641Z,24.53
2018-12-18T00:04:00.787Z,18.42
2018-12-18T00:06:29.112Z,25.93
2018-12-18T00:08:57.257Z,23.30
2018-12-18T00:11:26.339Z,19.73
2018-12-18T00:13:54.472Z,18.27
2018-12-18T00:16:22.622Z,20.43
2018-12-18T00:18:50.761Z,18.27
2018-12-18T00:21:18.897Z,17.27
2018-12-18T00:23:47.151Z,19.40
2018-12-18T00:26:15.296Z,18.03
2018-12-18T00:28:43.426Z,15.03
2018-12-18T00:31:11.858Z,20.53
2018-12-18T00:33:45.897Z,17.97
2018-12-18T00:36:10.197Z,18.27
2018-12-18T00:38:38.334Z,17.25
2018-12-18T00:41:06.478Z,20.20
2018-12-18T00:43:34.604Z,18.13
2018-12-18T00:46:02.729Z,22.53
2018-12-18T00:48:30.901Z,21.37
2018-12-18T00:50:59.050Z,20.47
2018-12-18T00:53:27.224Z,23.07
2018-12-18T00:55:55.523Z,20.53
2018-12-18T00:58:23.639Z,19.43
2018-12-18T01:00:51.791Z,16.13
2018-12-18T01:03:19.994Z,17.97
2018-12-18T01:05:48.135Z,18.80
2018-12-18T01:08:16.263Z,18.47
2018-12-18T01:10:44.392Z,16.85
2018-12-18T01:13:12.531Z,14.93
2018-12-18T01:15:40.671Z,13.63
2018-12-18T01:18:08.828Z,16.80
2018-12-18T01:20:37.061Z,16.83
2018-12-18T01:23:05.212Z,15.88
2018-12-18T01:25:33.309Z,17.93
2018-12-18T01:28:01.457Z,16.03
2018-12-18T01:30:29.693Z,13.77
2018-12-18T01:32:58.089Z,15.37
2018-12-18T01:35:26.224Z,17.47
2018-12-18T01:37:55.059Z,18.50
2018-12-18T01:40:23.199Z,16.17
2018-12-18T01:42:51.314Z,16.53
2018-12-18T01:45:19.453Z,12.47
2018-12-18T01:47:47.624Z,16.40
2018-12-18T01:50:15.754Z,18.43
2018-12-18T01:52:43.913Z,13.33
2018-12-18T01:55:12.022Z,19.40
2018-12-18T01:57:40.159Z,19.47
2018-12-18T02:00:08.369Z,12.63
2018-12-18T02:02:36.486Z,15.60
2018-12-18T02:05:05.218Z,17.40
2018-12-18T02:07:33.359Z,14.30
2018-12-18T02:10:01.488Z,17.87
2018-12-18T02:12:29.616Z,13.37
2018-12-18T02:14:58.995Z,16.10
2018-12-18T02:17:27.131Z,15.50
2018-12-18T02:19:55.269Z,14.67
2018-12-18T02:22:23.399Z,19.77
2018-12-18T02:24:51.528Z,12.23
2018-12-18T02:27:19.741Z,13.37
2018-12-18T02:29:47.894Z,13.93
2018-12-18T02:32:16.015Z,15.17
2018-12-18T02:34:44.150Z,15.97
2018-12-18T02:37:12.299Z,13.77
2018-12-18T02:39:40.450Z,14.18
2018-12-18T02:42:08.625Z,11.87
2018-12-18T02:44:36.743Z,15.07
2018-12-18T02:47:04.848Z,17.33
2018-12-18T02:49:32.990Z,10.77
2018-12-18T02:52:01.130Z,15.93
2018-12-18T02:54:29.859Z,17.42
2018-12-18T02:56:58.012Z,18.43
2018-12-18T02:59:26.154Z,13.17
2018-12-18T03:01:54.284Z,13.67
2018-12-18T03:04:22.404Z,13.27
2018-12-18T03:06:50.636Z,16.87
2018-12-18T03:09:18.758Z,12.03
2018-12-18T03:11:46.906Z,14.97
2018-12-18T03:14:15.060Z,15.60
2018-12-18T03:16:43.172Z,12.58
2018-12-18T03:19:12.302Z,16.17
2018-12-18T03:21:41.709Z,18.43
2018-12-18T03:24:09.834Z,17.23
2018-12-18T03:26:37.944Z,17.10
2018-12-18T03:29:06.073Z,12.43
2018-12-18T03:31:35.990Z,11.37
2018-12-18T03:34:04.128Z,12.57
2018-12-18T03:36:32.233Z,12.93
2018-12-18T03:39:00.687Z,11.65
2018-12-18T03:41:28.904Z,12.23
2018-12-18T03:43:57.015Z,18.43
2018-12-18T03:46:25.165Z,12.03
2018-12-18T03:48:53.315Z,15.33
2018-12-18T03:51:21.429Z,14.33
2018-12-18T03:53:49.567Z,16.50
2018-12-18T03:56:17.701Z,11.87
2018-12-18T03:58:45.900Z,9.33
2018-12-18T04:01:14.020Z,12.67
2018-12-18T04:03:42.155Z,14.03
2018-12-18T04:06:10.275Z,15.37
2018-12-18T04:08:38.404Z,17.70
2018-12-18T04:11:06.552Z,10.38
2018-12-18T04:13:34.683Z,15.67
2018-12-18T04:16:02.846Z,13.90
2018-12-18T04:18:32.121Z,18.53
2018-12-18T04:21:00.255Z,13.62
2018-12-18T04:23:28.366Z,15.43
2018-12-18T04:25:56.477Z,12.93
2018-12-18T04:28:24.623Z,15.10
2018-12-18T04:30:52.741Z,14.50
2018-12-18T04:33:20.887Z,15.60
2018-12-18T04:35:49.015Z,12.27
2018-12-18T04:38:17.135Z,13.75
2018-12-18T04:40:45.255Z,17.80
2018-12-18T04:43:13.395Z,13.67
2018-12-18T04:45:41.516Z,13.37
2018-12-18T04:48:09.698Z,15.13
2018-12-18T04:50:37.829Z,11.20
2018-12-18T04:53:05.958Z,12.17
2018-12-18T04:55:34.123Z,18.62
2018-12-18T04:58:03.145Z,14.60
2018-12-18T05:00:31.283Z,13.00
2018-12-18T05:02:59.450Z,12.30
2018-12-18T05:05:28.387Z,14.30
2018-12-18T05:07:56.544Z,10.30
2018-12-18T05:10:24.679Z,13.27
2018-12-18T05:12:52.841Z,12.37
2018-12-18T05:15:20.976Z,8.90
2018-12-18T05:17:49.094Z,9.93
2018-12-18T05:20:17.237Z,15.87
2018-12-18T05:22:45.384Z,9.97
2018-12-18T05:25:14.002Z,11.17
2018-12-18T05:27:42.231Z,10.60
2018-12-18T05:30:10.371Z,16.07
2018-12-18T05:32:38.494Z,42.05
2018-12-18T05:35:06.736Z,20.30
2018-12-18T05:37:34.855Z,12.77
2018-12-18T05:40:05.829Z,11.80
2018-12-18T05:42:34.287Z,10.78
2018-12-18T05:45:02.420Z,10.30
2018-12-18T05:47:30.557Z,10.17
2018-12-18T05:49:58.663Z,8.73
2018-12-18T05:52:27.195Z,8.00
2018-12-18T05:54:55.349Z,8.87
2018-12-18T05:57:23.561Z,7.83
2018-12-18T05:59:51.688Z,6.90
2018-12-18T06:02:19.809Z,9.53
2018-12-18T06:04:47.927Z,10.03
2018-12-18T06:07:16.191Z,7.75
2018-12-18T06:09:44.315Z,7.73
2018-12-18T06:12:12.469Z,10.73
2018-12-18T06:14:40.593Z,10.72
2018-12-18T06:17:08.758Z,9.00
2018-12-18T06:19:38.147Z,8.13
2018-12-18T06:22:06.246Z,9.70
2018-12-18T06:24:34.371Z,9.63
2018-12-18T06:27:02.492Z,9.83
2018-12-18T06:29:30.639Z,8.17
2018-12-18T06:31:58.792Z,10.03
2018-12-18T06:34:27.005Z,8.17
2018-12-18T06:36:55.122Z,9.60
2018-12-18T06:39:23.257Z,8.47
2018-12-18T06:41:51.382Z,10.53
2018-12-18T06:44:19.543Z,11.53
2018-12-18T06:46:47.683Z,12.25
2018-12-18T06:49:16.567Z,9.17
2018-12-18T06:51:44.691Z,7.15
2018-12-18T06:54:12.841Z,8.23
2018-12-18T06:56:40.956Z,11.60
2018-12-18T06:59:09.110Z,8.57
2018-12-18T07:01:37.200Z,8.73
2018-12-18T07:04:05.342Z,12.67
2018-12-18T07:06:33.472Z,13.70
2018-12-18T07:09:01.613Z,9.23
2018-12-18T07:11:29.772Z,8.30
2018-12-18T07:13:57.879Z,6.23
2018-12-18T07:16:25.996Z,10.17
2018-12-18T07:18:54.147Z,10.90
2018-12-18T07:21:22.275Z,10.63
2018-12-18T07:23:50.442Z,8.57
2018-12-18T07:26:18.561Z,8.90
2018-12-18T07:28:46.736Z,84.03
2018-12-18T07:31:14.857Z,85.07
2018-12-18T07:33:42.987Z,17.03
2018-12-18T07:36:11.111Z,9.03
2018-12-18T07:38:39.242Z,10.70
2018-12-18T07:41:07.931Z,12.85
2018-12-18T07:43:36.082Z,7.90
2018-12-18T07:46:04.197Z,9.73
2018-12-18T07:48:32.346Z,12.63
2018-12-18T07:51:00.486Z,7.60
2018-12-18T07:53:28.597Z,8.90
2018-12-18T07:56:00.238Z,10.43
2018-12-18T07:58:27.040Z,11.73
2018-12-18T08:00:55.169Z,6.40
2018-12-18T08:03:23.283Z,9.77
2018-12-18T08:05:51.444Z,8.40
2018-12-18T08:08:19.549Z,8.60
2018-12-18T08:10:48.551Z,9.37
2018-12-18T08:13:16.826Z,9.53
2018-12-18T08:15:44.981Z,8.90
2018-12-18T08:18:13.803Z,13.07
2018-12-18T08:20:41.976Z,6.83
2018-12-18T08:23:10.079Z,10.23
2018-12-18T08:25:38.395Z,7.93
2018-12-18T08:28:06.546Z,10.90
2018-12-18T08:30:34.656Z,8.17
2018-12-18T08:33:02.816Z,9.47
2018-12-18T08:35:36.476Z,10.07
2018-12-18T08:38:01.095Z,10.40
2018-12-18T08:40:29.252Z,12.17
2018-12-18T08:42:57.468Z,8.77
2018-12-18T08:45:25.611Z,8.63
2018-12-18T08:47:53.727Z,8.93
2018-12-18T08:50:21.905Z,8.90
2018-12-18T08:52:50.036Z,8.03
2018-12-18T08:55:18.146Z,8.33
2018-12-18T08:57:46.643Z,9.90
2018-12-18T09:00:14.758Z,7.30
2018-12-18T09:02:42.886Z,8.87
2018-12-18T09:05:11.025Z,10.60
2018-12-18T09:07:39.198Z,8.00
2018-12-18T09:10:09.084Z,8.87
2018-12-18T09:12:37.198Z,6.70
2018-12-18T09:15:08.497Z,10.53
2018-12-18T09:17:52.302Z,10.43
2018-12-18T09:20:20.428Z,12.00
2018-12-18T09:22:48.563Z,9.73
2018-12-18T09:25:17.442Z,7.90
2018-12-18T09:27:45.618Z,7.50
2018-12-18T09:30:13.916Z,8.10
2018-12-18T09:32:42.053Z,6.63
2018-12-18T09:35:10.186Z,9.43
2018-12-18T09:37:38.308Z,7.67
2018-12-18T09:40:07.215Z,9.00
2018-12-18T09:42:40.955Z,9.13
2018-12-18T09:45:09.186Z,11.87
2018-12-18T09:47:37.306Z,9.57
2018-12-18T09:50:06.541Z,6.50
2018-12-18T09:52:34.636Z,8.93
2018-12-18T09:55:02.788Z,4.75
2018-12-18T09:57:36.677Z,9.90
2018-12-18T10:00:07.816Z,6.23
2018-12-18T10:02:36.069Z,10.57
2018-12-18T10:05:04.878Z,8.60
2018-12-18T10:07:32.995Z,8.93
2018-12-18T10:10:01.262Z,8.60
2018-12-18T10:12:34.977Z,9.17
2018-12-18T10:15:03.311Z,6.83
2018-12-18T10:17:31.424Z,8.83
2018-12-18T10:19:59.592Z,9.20
2018-12-18T10:22:27.778Z,9.85
2018-12-18T10:24:55.875Z,6.63
2018-12-18T10:27:24.020Z,10.97
2018-12-18T10:29:52.137Z,8.37
2018-12-18T10:32:20.277Z,7.60
2018-12-18T10:34:48.996Z,7.90
2018-12-18T10:37:17.173Z,7.60
2018-12-18T10:39:45.305Z,7.17
2018-12-18T10:42:13.444Z,8.60
2018-12-18T10:44:41.596Z,7.73
2018-12-18T10:47:09.743Z,6.00
2018-12-18T10:49:37.878Z,6.63
2018-12-18T10:52:06.026Z,5.23
2018-12-18T10:54:34.168Z,6.53
2018-12-18T10:57:02.276Z,9.63
2018-12-18T10:59:30.444Z,9.00
2018-12-18T11:02:01.176Z,9.67
2018-12-18T11:04:29.290Z,6.17
2018-12-18T11:06:57.433Z,7.33
2018-12-18T11:09:25.650Z,9.23
2018-12-18T11:11:53.763Z,10.75
2018-12-18T11:14:21.887Z,7.37
2018-12-18T11:16:50.122Z,7.93
2018-12-18T11:19:18.292Z,8.53
2018-12-18T11:21:46.439Z,8.13
2018-12-18T11:24:14.561Z,5.33
2018-12-18T11:26:42.722Z,6.90
2018-12-18T11:29:10.841Z,8.53
2018-12-18T11:31:39.020Z,8.60
2018-12-18T11:34:07.203Z,8.07
2018-12-18T11:36:35.331Z,9.38
2018-12-18T11:39:06.150Z,7.70
2018-12-18T11:41:34.311Z,6.50
2018-12-18T11:44:02.830Z,6.53
2018-12-18T11:46:30.987Z,10.47
2018-12-18T11:48:59.163Z,8.60
2018-12-18T11:51:27.367Z,8.53
2018-12-18T11:53:55.487Z,8.85
2018-12-18T11:56:23.643Z,5.00
2018-12-18T11:58:51.777Z,7.97
2018-12-18T12:01:20.894Z,8.80
2018-12-18T12:03:49.018Z,6.77
2018-12-18T12:06:22.860Z,6.87
2018-12-18T12:08:47.307Z,8.40
2018-12-18T12:11:15.406Z,5.57
2018-12-18T12:13:43.579Z,6.00
2018-12-18T12:16:11.745Z,12.70
2018-12-18T12:18:39.889Z,5.77
2018-12-18T12:21:08.028Z,9.13
2018-12-18T12:23:36.167Z,5.87
2018-12-18T12:26:06.327Z,11.08
2018-12-18T12:28:34.503Z,10.70
2018-12-18T12:31:02.717Z,7.08
2018-12-18T12:33:30.861Z,9.90
2018-12-18T12:35:58.990Z,10.23
2018-12-18T12:38:27.132Z,6.67
2018-12-18T12:40:55.342Z,7.90
2018-12-18T12:43:23.474Z,17.77
2018-12-18T12:45:52.587Z,7.45
2018-12-18T12:48:22.734Z,8.73
2018-12-18T12:50:50.864Z,7.77
2018-12-18T12:53:19.113Z,7.80
2018-12-18T12:55:47.298Z,7.80
2018-12-18T12:58:15.461Z,7.00
2018-12-18T13:00:44.257Z,6.92
2018-12-18T13:03:12.427Z,9.40
2018-12-18T13:05:40.604Z,7.08
2018-12-18T13:08:08.847Z,9.93
2018-12-18T13:10:37.011Z,6.08
2018-12-18T13:13:05.142Z,7.30
2018-12-18T13:15:33.333Z,5.67
2018-12-18T13:18:01.492Z,10.50
2018-12-18T13:20:29.696Z,5.58
2018-12-18T13:22:57.867Z,19.45
2018-12-18T13:25:26.000Z,14.20
2018-12-18T13:27:54.145Z,5.27
2018-12-18T13:30:23.329Z,7.25
2018-12-18T13:32:51.486Z,6.33
2018-12-18T13:35:19.638Z,7.43
2018-12-18T13:37:47.787Z,7.07
2018-12-18T13:40:15.977Z,9.67
2018-12-18T13:42:44.117Z,5.97
2018-12-18T13:45:12.279Z,9.37
2018-12-18T13:47:40.405Z,7.97
2018-12-18T13:50:08.738Z,10.67
2018-12-18T13:52:36.893Z,7.27
2018-12-18T13:55:05.088Z,7.50
2018-12-18T13:57:33.237Z,8.35
2018-12-18T14:00:01.429Z,7.35
2018-12-18T14:02:29.709Z,8.67
2018-12-18T14:04:57.957Z,10.37
2018-12-18T14:07:26.092Z,7.33
2018-12-18T14:09:54.949Z,10.00
2018-12-18T14:12:24.271Z,8.20
2018-12-18T14:14:52.478Z,9.07
2018-12-18T14:17:20.762Z,10.00
2018-12-18T14:19:48.877Z,7.60
2018-12-18T14:22:17.147Z,9.10
2018-12-18T14:24:45.390Z,8.23
2018-12-18T14:27:13.657Z,9.45
2018-12-18T14:29:41.876Z,7.00
2018-12-18T14:32:10.181Z,9.27
2018-12-18T14:34:38.335Z,7.60
2018-12-18T14:37:06.695Z,7.13
2018-12-18T14:39:34.831Z,7.03
2018-12-18T14:42:03.211Z,5.77
2018-12-18T14:44:31.517Z,9.17
2018-12-18T14:46:59.671Z,7.83
2018-12-18T14:49:27.959Z,8.67
2018-12-18T14:51:56.439Z,7.70
2018-12-18T14:54:25.747Z,11.27
2018-12-18T14:56:55.737Z,9.53
2018-12-18T14:59:24.321Z,6.33
2018-12-18T15:01:52.543Z,9.23
2018-12-18T15:04:20.694Z,9.77
2018-12-18T15:06:48.873Z,9.53
2018-12-18T15:09:17.046Z,5.90
2018-12-18T15:11:45.210Z,6.03
2018-12-18T15:14:13.437Z,28.30
2018-12-18T15:16:41.657Z,15.53
2018-12-18T15:19:09.824Z,11.28
2018-12-18T15:21:38.140Z,7.67
2018-12-18T15:24:06.278Z,4.67
2018-12-18T15:26:34.590Z,10.17
2018-12-18T15:29:02.803Z,8.10
2018-12-18T15:31:31.196Z,9.80
2018-12-18T15:33:59.362Z,7.77
2018-12-18T15:36:27.507Z,6.50
2018-12-18T15:38:56.222Z,7.95
2018-12-18T15:41:24.356Z,10.70
2018-12-18T15:43:52.508Z,6.67
2018-12-18T15:46:20.699Z,7.80
2018-12-18T15:48:48.853Z,7.00
2018-12-18T15:51:17.083Z,6.57
2018-12-18T15:53:45.212Z,9.33
2018-12-18T15:56:13.502Z,31.43
2018-12-18T15:58:41.640Z,7.57
2018-12-18T16:01:09.888Z,4.75
2018-12-18T16:03:38.122Z,6.17
2018-12-18T16:06:06.269Z,6.60
2018-12-18T16:08:34.648Z,10.30
2018-12-18T16:11:02.779Z,5.27
2018-12-18T16:13:31.010Z,6.65
2018-12-18T16:15:59.170Z,6.40
2018-12-18T16:18:27.362Z,5.10
2018-12-18T16:20:55.663Z,12.37
2018-12-18T16:23:23.816Z,6.47
2018-12-18T16:25:51.987Z,5.03
2018-12-18T16:28:20.252Z,5.93
2018-12-18T16:30:49.021Z,6.73
2018-12-18T16:33:17.203Z,8.80
2018-12-18T16:35:46.346Z,18.37
2018-12-18T16:38:14.994Z,9.27
2018-12-18T16:40:43.287Z,6.03
2018-12-18T16:43:11.563Z,5.97
2018-12-18T16:45:39.811Z,4.27
2018-12-18T16:48:07.991Z,4.00
2018-12-18T16:50:36.170Z,9.15
2018-12-18T16:53:04.459Z,7.50
2018-12-18T16:55:32.659Z,6.75
2018-12-18T16:58:02.689Z,7.43
2018-12-18T17:00:30.895Z,6.43
2018-12-18T17:02:59.084Z,7.07
2018-12-18T17:05:28.400Z,7.63
2018-12-18T17:07:56.583Z,5.40
2018-12-18T17:10:24.746Z,5.30
2018-12-18T17:12:56.319Z,4.93
2018-12-18T17:15:24.679Z,6.07
2018-12-18T17:17:52.894Z,6.85
2018-12-18T17:20:21.041Z,5.67
2018-12-18T17:22:49.288Z,5.60
2018-12-18T17:25:17.548Z,18.33
2018-12-18T17:27:45.678Z,8.53
2018-12-18T17:30:13.888Z,6.00
2018-12-18T17:32:42.077Z,7.17
2018-12-18T17:35:10.226Z,7.23
2018-12-18T17:37:38.474Z,5.33
2018-12-18T17:40:07.584Z,6.27
2018-12-18T17:42:36.629Z,5.80
2018-12-18T17:45:06.768Z,9.57
2018-12-18T17:47:34.959Z,7.17
2018-12-18T17:50:04.480Z,6.37
2018-12-18T17:52:32.797Z,3.97
2018-12-18T17:55:00.970Z,7.77
2018-12-18T17:57:29.625Z,5.65
2018-12-18T17:59:57.846Z,5.87
2018-12-18T18:02:26.115Z,4.27
2018-12-18T18:04:54.811Z,6.93
2018-12-18T18:07:22.992Z,6.60
2018-12-18T18:09:51.251Z,16.13
2018-12-18T18:12:19.445Z,8.83
2018-12-18T18:14:47.602Z,7.47
2018-12-18T18:17:15.943Z,7.77
2018-12-18T18:19:45.101Z,7.70
2018-12-18T18:22:13.943Z,6.10
2018-12-18T18:24:42.182Z,7.50
2018-12-18T18:27:10.453Z,6.80
2018-12-18T18:29:38.861Z,6.72
2018-12-18T18:32:07.042Z,5.30
2018-12-18T18:34:35.337Z,9.33
2018-12-18T18:37:03.588Z,6.47
2018-12-18T18:39:31.832Z,8.53
2018-12-18T18:42:00.728Z,7.33
2018-12-18T18:44:29.224Z,9.40
2018-12-18T18:46:58.622Z,8.00
2018-12-18T18:49:26.820Z,8.47
2018-12-18T18:51:55.005Z,6.87
2018-12-18T18:54:23.351Z,8.33
2018-12-18T18:56:51.612Z,8.40
2018-12-18T18:59:19.899Z,8.58
2018-12-18T19:01:48.109Z,5.33
2018-12-18T19:04:16.464Z,5.27
2018-12-18T19:06:45.010Z,5.37
2018-12-18T19:09:13.220Z,9.03
2018-12-18T19:11:41.381Z,7.37
2018-12-18T19:14:09.669Z,5.77
2018-12-18T19:16:37.838Z,6.57
2018-12-18T19:19:06.099Z,6.43
2018-12-18T19:21:34.350Z,6.10
2018-12-18T19:24:02.536Z,7.53
2018-12-18T19:26:31.403Z,6.90
2018-12-18T19:28:59.568Z,2.93
2018-12-18T19:31:27.753Z,4.13
2018-12-18T19:33:55.911Z,6.57
2018-12-18T19:36:24.479Z,4.90
2018-12-18T19:38:53.591Z,4.72
2018-12-18T19:41:21.788Z,3.37
2018-12-18T19:43:50.180Z,4.17
2018-12-18T19:46:18.389Z,5.50
2018-12-18T19:48:46.872Z,3.13
2018-12-18T19:51:15.225Z,3.15
2018-12-18T19:53:43.407Z,4.03
2018-12-18T19:56:11.600Z,3.97
2018-12-18T19:58:39.887Z,4.93
2018-12-18T20:01:08.622Z,5.03
2018-12-18T20:03:39.220Z,3.87
2018-12-18T20:06:08.128Z,6.75
2018-12-18T20:08:36.396Z,6.03
2018-12-18T20:11:05.490Z,4.00
2018-12-18T20:13:35.331Z,6.00
2018-12-18T20:16:03.990Z,4.57
2018-12-18T20:18:33.291Z,3.10
2018-12-18T20:21:01.663Z,5.90
2018-12-18T20:23:30.337Z,3.77
2018-12-18T20:26:00.034Z,3.80
2018-12-18T20:28:28.751Z,3.90
2018-12-18T20:30:56.921Z,3.60
2018-12-18T20:33:25.099Z,6.53
2018-12-18T20:35:53.488Z,3.65
2018-12-18T20:38:21.692Z,5.13
2018-12-18T20:40:49.878Z,5.50
2018-12-18T20:43:18.179Z,4.80
2018-12-18T20:45:46.366Z,3.17
2018-12-18T20:48:14.576Z,4.97
2018-12-18T20:50:42.810Z,4.73
2018-12-18T20:53:11.148Z,6.03
2018-12-18T20:55:39.387Z,4.17
2018-12-18T20:58:07.626Z,5.50
2018-12-18T21:00:36.298Z,5.85
2018-12-18T21:03:04.609Z,4.87
2018-12-18T21:05:32.759Z,5.00
2018-12-18T21:08:01.201Z,5.00
2018-12-18T21:10:29.382Z,4.70
2018-12-18T21:13:00.215Z,3.45
2018-12-18T21:15:28.823Z,4.03
2018-12-18T21:17:57.290Z,4.93
2018-12-18T21:20:25.923Z,5.03
2018-12-18T21:22:54.094Z,4.70
2018-12-18T21:25:22.271Z,3.97
2018-12-18T21:27:50.421Z,6.07
2018-12-18T21:30:18.561Z,5.13
2018-12-18T21:32:46.729Z,3.93
2018-12-18T21:35:14.960Z,3.50
2018-12-18T21:37:43.232Z,3.60
2018-12-18T21:40:12.023Z,4.05
2018-12-18T21:42:41.031Z,6.22
2018-12-18T21:45:09.400Z,3.77
2018-12-18T21:47:39.328Z,3.67
2018-12-18T21:50:08.283Z,5.92
2018-12-18T21:52:36.462Z,4.10
2018-12-18T21:55:05.507Z,4.47
2018-12-18T21:57:33.704Z,6.00
2018-12-18T22:00:01.920Z,5.97
2018-12-18T22:02:30.058Z,5.37
2018-12-18T22:04:58.190Z,5.60
2018-12-18T22:07:26.543Z,4.90
2018-12-18T22:09:54.789Z,5.97
2018-12-18T22:12:22.988Z,5.30
2018-12-18T22:14:51.466Z,4.47
2018-12-18T22:17:19.646Z,5.33
2018-12-18T22:19:48.573Z,4.90
2018-12-18T22:22:16.728Z,4.53
2018-12-18T22:24:44.968Z,7.07
2018-12-18T22:27:13.509Z,6.62
2018-12-18T22:29:41.659Z,6.90
2018-12-18T22:32:09.845Z,4.57
2018-12-18T22:34:39.128Z,4.83
2018-12-18T22:37:07.284Z,5.43
2018-12-18T22:39:35.414Z,4.23
2018-12-18T22:42:03.712Z,4.43
2018-12-18T22:44:32.023Z,4.87
2018-12-18T22:47:00.502Z,4.90
2018-12-18T22:49:28.652Z,6.17
2018-12-18T22:51:56.778Z,4.60
2018-12-18T22:54:24.969Z,4.13
2018-12-18T22:56:53.081Z,4.10
2018-12-18T22:59:21.257Z,4.10
2018-12-18T23:01:49.378Z,5.58
2018-12-18T23:04:17.519Z,5.47
2018-12-18T23:06:45.694Z,4.13
2018-12-18T23:09:15.240Z,3.90
2018-12-18T23:11:43.615Z,6.65
2018-12-18T23:14:11.732Z,4.43
2018-12-18T23:16:40.569Z,4.35
2018-12-18T23:19:08.713Z,2.70
2018-12-18T23:21:36.843Z,4.80
2018-12-18T23:24:04.987Z,4.13
2018-12-18T23:26:33.115Z,5.33
2018-12-18T23:29:01.284Z,6.27
2018-12-18T23:31:29.444Z,7.23
2018-12-18T23:33:57.571Z,3.50
2018-12-18T23:36:25.759Z,3.50
2018-12-18T23:38:56.803Z,4.20
2018-12-18T23:41:24.073Z,4.60
2018-12-18T23:43:52.200Z,3.80
2018-12-18T23:46:20.356Z,2.50
2018-12-18T23:48:48.508Z,2.47
2018-12-18T23:51:16.655Z,4.15
2018-12-18T23:53:44.807Z,2.73
2018-12-18T23:56:12.927Z,3.20
2018-12-18T23:58:41.601Z,3.98
